createdAt,value
2023-02-27T00:00:30.656Z,-3.71
2023-02-27T00:02:59.876Z,-3.43
2023-02-27T00:05:29.369Z,-2.95
2023-02-27T00:07:57.308Z,-3.09
2023-02-27T00:10:25.639Z,-3.32
2023-02-27T00:12:53.637Z,-3.68
2023-02-27T00:15:22.670Z,-3.24
2023-02-27T00:17:51.266Z,-3.10
2023-02-27T00:20:21.865Z,-3.19
2023-02-27T00:22:51.973Z,-3.46
2023-02-27T00:25:20.320Z,-3.89
2023-02-27T00:27:50.542Z,-4.00
2023-02-27T00:30:18.790Z,-4.03
2023-02-27T00:32:46.942Z,-3.92
2023-02-27T00:35:15.566Z,-3.83
2023-02-27T00:37:43.527Z,-3.64
2023-02-27T00:40:14.228Z,-3.14
2023-02-27T00:42:42.448Z,-2.60
2023-02-27T00:45:11.196Z,-2.42
2023-02-27T00:47:39.068Z,-2.41
2023-02-27T00:50:08.044Z,-2.71
2023-02-27T00:52:37.957Z,-2.95
2023-02-27T00:55:06.693Z,-3.25
2023-02-27T00:57:38.670Z,-3.32
2023-02-27T01:00:08.680Z,-3.25
2023-02-27T01:02:36.659Z,-3.67
2023-02-27T01:05:10.237Z,-3.95
2023-02-27T01:07:39.430Z,-3.36
2023-02-27T01:10:08.802Z,-3.03
2023-02-27T01:12:38.257Z,-3.22
2023-02-27T01:15:08.439Z,-3.06
2023-02-27T01:17:36.502Z,-3.31
2023-02-27T01:20:07.725Z,-3.37
2023-02-27T01:22:36.092Z,-3.30
2023-02-27T01:25:04.732Z,-3.26
2023-02-27T01:27:32.598Z,-3.04
2023-02-27T01:30:01.922Z,-3.37
2023-02-27T01:32:30.118Z,-3.54
2023-02-27T01:34:58.349Z,-3.91
2023-02-27T01:37:26.329Z,-3.89
2023-02-27T01:39:57.536Z,-3.67
2023-02-27T01:42:28.274Z,-3.82
2023-02-27T01:45:35.035Z,-3.26
2023-02-27T01:48:16.361Z,-3.63
2023-02-27T01:50:55.262Z,-3.72
2023-02-27T01:53:38.146Z,-3.82
2023-02-27T01:56:13.571Z,-3.71
2023-02-27T01:59:04.040Z,-3.50
2023-02-27T02:01:35.970Z,-3.35
2023-02-27T02:04:11.375Z,-2.73
2023-02-27T02:06:43.898Z,-2.83
2023-02-27T02:09:22.829Z,-2.80
2023-02-27T02:11:58.751Z,-2.71
2023-02-27T02:14:27.659Z,-2.59
2023-02-27T02:17:11.329Z,-2.45
2023-02-27T02:20:14.955Z,-2.38
2023-02-27T02:23:36.430Z,-2.36
2023-02-27T02:26:29.277Z,-2.35
2023-02-27T02:29:32.592Z,-2.23
2023-02-27T02:32:31.759Z,-2.09
2023-02-27T02:35:37.648Z,-1.84
2023-02-27T02:38:44.694Z,-1.93
2023-02-27T02:41:20.123Z,-1.89
2023-02-27T02:44:01.216Z,-1.78
2023-02-27T02:46:35.511Z,-1.82
2023-02-27T02:49:15.473Z,-1.72
2023-02-27T02:51:50.335Z,-1.77
2023-02-27T02:54:26.178Z,-1.80
2023-02-27T02:57:03.310Z,-1.76
2023-02-27T02:59:36.508Z,-1.89
2023-02-27T03:02:08.740Z,-1.76
2023-02-27T03:04:41.180Z,-1.69
2023-02-27T03:07:16.124Z,-1.82
2023-02-27T03:09:58.399Z,-1.93
2023-02-27T03:12:32.733Z,-1.86
2023-02-27T03:15:06.288Z,-1.84
2023-02-27T03:17:41.186Z,-1.90
2023-02-27T03:20:12.473Z,-1.95
2023-02-27T03:22:46.868Z,-2.00
2023-02-27T03:25:16.832Z,-1.88
2023-02-27T03:27:48.767Z,-2.15
2023-02-27T03:30:21.663Z,-2.08
2023-02-27T03:32:56.884Z,-2.07
2023-02-27T03:35:32.850Z,-2.04
2023-02-27T03:38:08.297Z,-1.95
2023-02-27T03:40:43.846Z,-2.15
2023-02-27T03:43:21.050Z,-2.35
2023-02-27T03:45:57.365Z,-2.37
2023-02-27T03:48:25.736Z,-2.40
2023-02-27T03:50:54.895Z,-2.42
2023-02-27T03:53:28.833Z,-2.40
2023-02-27T03:55:59.758Z,-2.40
2023-02-27T03:58:27.786Z,-2.41
2023-02-27T04:00:56.417Z,-2.58
2023-02-27T04:03:24.861Z,-2.93
2023-02-27T04:05:53.756Z,-3.08
2023-02-27T04:08:49.685Z,-3.07
2023-02-27T04:11:33.391Z,-3.19
2023-02-27T04:14:23.978Z,-2.90
2023-02-27T04:17:02.625Z,-2.95
2023-02-27T04:19:53.328Z,-3.13
2023-02-27T04:22:32.784Z,-3.11
2023-02-27T04:25:17.142Z,-3.43
2023-02-27T04:27:55.953Z,-3.76
2023-02-27T04:30:29.813Z,-3.72
2023-02-27T04:33:03.500Z,-3.66
2023-02-27T04:35:38.523Z,-3.71
2023-02-27T04:38:13.036Z,-3.88
2023-02-27T04:40:49.546Z,-3.98
2023-02-27T04:43:21.590Z,-4.04
2023-02-27T04:45:51.679Z,-4.26
2023-02-27T04:48:26.004Z,-4.22
2023-02-27T04:50:59.731Z,-3.97
2023-02-27T04:53:32.262Z,-4.13
2023-02-27T04:56:05.005Z,-4.25
2023-02-27T04:58:38.268Z,-3.74
2023-02-27T05:01:13.149Z,-3.87
2023-02-27T05:03:45.698Z,-4.12
2023-02-27T05:06:16.478Z,-4.13
2023-02-27T05:08:50.699Z,-4.12
2023-02-27T05:11:27.108Z,-4.41
2023-02-27T05:14:00.070Z,-4.64
2023-02-27T05:16:34.462Z,-4.61
2023-02-27T05:19:03.094Z,-4.68
2023-02-27T05:21:35.560Z,-4.77
2023-02-27T05:24:13.882Z,-4.85
2023-02-27T05:27:11.061Z,-4.91
2023-02-27T05:29:46.458Z,-4.66
2023-02-27T05:32:23.765Z,-4.87
2023-02-27T05:34:55.897Z,-4.94
2023-02-27T05:37:28.773Z,-5.09
2023-02-27T05:39:56.822Z,-4.49
2023-02-27T05:42:30.774Z,-4.85
2023-02-27T05:45:06.909Z,-4.78
2023-02-27T05:47:38.670Z,-4.96
2023-02-27T05:50:11.500Z,-5.08
2023-02-27T05:52:42.072Z,-5.11
2023-02-27T05:55:17.048Z,-5.14
2023-02-27T05:58:03.091Z,-5.18
2023-02-27T06:00:38.089Z,-5.20
2023-02-27T06:03:10.912Z,-5.24
2023-02-27T06:05:45.972Z,-5.30
2023-02-27T06:08:22.532Z,-5.34
2023-02-27T06:10:51.861Z,-5.37
2023-02-27T06:13:21.098Z,-5.51
2023-02-27T06:15:51.695Z,-5.30
2023-02-27T06:18:20.294Z,-4.76
2023-02-27T06:20:48.552Z,-5.10
2023-02-27T06:23:17.244Z,-5.29
2023-02-27T06:25:45.698Z,-5.35
2023-02-27T06:28:13.726Z,-5.32
2023-02-27T06:30:42.076Z,-5.36
2023-02-27T06:33:13.495Z,-5.40
2023-02-27T06:35:42.444Z,-5.25
2023-02-27T06:38:11.074Z,-5.24
2023-02-27T06:40:39.279Z,-5.27
2023-02-27T06:43:08.755Z,-5.32
2023-02-27T06:45:40.724Z,-5.43
2023-02-27T06:48:08.731Z,-5.26
2023-02-27T06:50:38.138Z,-5.12
2023-02-27T06:53:07.029Z,-5.07
2023-02-27T06:55:34.896Z,-5.05
2023-02-27T06:58:03.879Z,-4.93
2023-02-27T07:00:32.004Z,-4.82
2023-02-27T07:03:00.534Z,-4.83
2023-02-27T07:05:29.584Z,-4.62
2023-02-27T07:08:00.265Z,-4.32
2023-02-27T07:10:28.895Z,-3.93
2023-02-27T07:12:57.014Z,-3.60
2023-02-27T07:15:27.801Z,-3.27
2023-02-27T07:17:55.856Z,-2.76
2023-02-27T07:20:27.439Z,-2.46
2023-02-27T07:22:55.415Z,-2.43
2023-02-27T07:25:27.759Z,-2.22
2023-02-27T07:27:56.118Z,-2.10
2023-02-27T07:30:24.471Z,-1.96
2023-02-27T07:32:53.071Z,-1.78
2023-02-27T07:35:21.135Z,-1.71
2023-02-27T07:37:49.508Z,-1.51
2023-02-27T07:40:17.759Z,-1.28
2023-02-27T07:42:48.709Z,-1.07
2023-02-27T07:45:20.806Z,-0.96
2023-02-27T07:47:49.594Z,-0.94
2023-02-27T07:50:18.470Z,-0.71
2023-02-27T07:52:47.055Z,-0.58
2023-02-27T07:55:15.305Z,-0.36
2023-02-27T07:57:43.361Z,-0.27
2023-02-27T08:00:14.360Z,-0.10
2023-02-27T08:02:42.485Z,0.16
2023-02-27T08:05:10.924Z,0.19
2023-02-27T08:07:39.137Z,0.55
2023-02-27T08:10:08.346Z,0.81
2023-02-27T08:12:36.541Z,0.97
2023-02-27T08:15:05.266Z,1.17
2023-02-27T08:17:34.694Z,1.25
2023-02-27T08:20:02.851Z,1.25
2023-02-27T08:22:31.977Z,1.63
2023-02-27T08:25:01.321Z,2.01
2023-02-27T08:27:30.663Z,1.97
2023-02-27T08:29:59.167Z,2.68
2023-02-27T08:32:28.888Z,3.18
2023-02-27T08:34:59.658Z,3.23
2023-02-27T08:37:27.684Z,3.18
2023-02-27T08:39:55.918Z,3.53
2023-02-27T08:42:26.565Z,3.15
2023-02-27T08:44:54.721Z,3.19
2023-02-27T08:47:22.657Z,3.38
2023-02-27T08:49:50.717Z,3.44
2023-02-27T08:52:22.843Z,3.21
2023-02-27T08:54:53.703Z,3.51
2023-02-27T08:57:22.052Z,4.20
2023-02-27T08:59:51.135Z,4.39
2023-02-27T09:02:19.376Z,3.98
2023-02-27T09:04:47.721Z,4.05
2023-02-27T09:07:16.047Z,4.37
2023-02-27T09:09:49.096Z,4.40
2023-02-27T09:12:17.988Z,4.37
2023-02-27T09:14:45.908Z,4.50
2023-02-27T09:17:14.505Z,4.41
2023-02-27T09:19:42.501Z,4.30
2023-02-27T09:22:10.568Z,4.26
2023-02-27T09:24:41.444Z,4.46
2023-02-27T09:27:10.711Z,4.63
2023-02-27T09:29:38.613Z,4.77
2023-02-27T09:32:06.922Z,4.58
2023-02-27T09:34:36.461Z,4.31
2023-02-27T09:37:04.809Z,4.62
2023-02-27T09:39:36.933Z,4.70
2023-02-27T09:42:12.460Z,4.93
2023-02-27T09:44:47.708Z,5.30
2023-02-27T09:47:22.320Z,5.85
2023-02-27T09:50:00.051Z,5.74
2023-02-27T09:52:29.280Z,5.86
2023-02-27T09:58:42.119Z,6.69
2023-02-27T10:01:17.324Z,6.53
2023-02-27T10:04:05.971Z,6.43
2023-02-27T10:06:43.609Z,7.61
2023-02-27T10:09:32.511Z,7.75
2023-02-27T10:12:22.750Z,7.62
2023-02-27T10:14:55.586Z,7.09
2023-02-27T10:17:29.899Z,7.72
2023-02-27T10:20:03.683Z,7.81
2023-02-27T10:23:19.056Z,8.31
2023-02-27T10:25:53.642Z,8.78
2023-02-27T10:28:23.938Z,8.97
2023-02-27T10:30:55.489Z,8.82
2023-02-27T10:33:28.475Z,9.85
2023-02-27T10:35:57.820Z,9.50
2023-02-27T10:38:33.431Z,9.09
2023-02-27T10:41:07.812Z,9.13
2023-02-27T10:43:36.666Z,9.28
2023-02-27T10:46:13.179Z,9.05
2023-02-27T10:48:43.022Z,9.18
2023-02-27T10:51:28.851Z,9.77
2023-02-27T10:54:15.769Z,8.60
2023-02-27T10:56:48.854Z,9.06
2023-02-27T10:59:22.262Z,8.81
2023-02-27T11:01:52.745Z,8.72
2023-02-27T11:04:33.123Z,9.51
2023-02-27T11:07:04.414Z,9.77
2023-02-27T11:09:34.230Z,9.09
2023-02-27T11:12:14.695Z,9.03
2023-02-27T11:15:02.072Z,7.65
2023-02-27T11:17:32.777Z,7.69
2023-02-27T11:20:06.549Z,7.45
2023-02-27T11:22:36.737Z,7.49
2023-02-27T11:25:20.470Z,8.57
2023-02-27T11:27:49.126Z,8.62
2023-02-27T11:30:32.073Z,8.56
2023-02-27T11:33:02.887Z,8.59
2023-02-27T11:35:35.389Z,9.25
2023-02-27T11:38:06.642Z,8.87
2023-02-27T11:40:39.490Z,7.67
2023-02-27T11:43:17.926Z,7.58
2023-02-27T11:46:18.098Z,8.75
2023-02-27T11:48:43.511Z,9.06
2023-02-27T11:51:55.084Z,8.51
2023-02-27T11:54:37.226Z,7.72
2023-02-27T11:57:15.948Z,7.94
2023-02-27T11:59:49.143Z,7.33
2023-02-27T12:02:26.555Z,7.32
2023-02-27T12:04:59.484Z,7.83
2023-02-27T12:07:34.496Z,8.51
2023-02-27T12:10:07.471Z,9.07
2023-02-27T12:12:45.300Z,9.86
2023-02-27T12:15:27.850Z,9.41
2023-02-27T12:18:14.804Z,8.77
2023-02-27T12:20:52.282Z,9.93
2023-02-27T12:23:30.342Z,10.85
2023-02-27T12:26:05.439Z,9.57
2023-02-27T12:28:52.220Z,8.76
2023-02-27T12:31:46.827Z,8.15
2023-02-27T12:34:26.067Z,7.46
2023-02-27T12:36:55.015Z,7.86
2023-02-27T12:39:26.396Z,7.41
2023-02-27T12:42:25.747Z,7.28
2023-02-27T12:45:16.745Z,7.15
2023-02-27T12:47:52.931Z,6.84
2023-02-27T12:50:33.321Z,7.32
2023-02-27T12:53:14.845Z,7.11
2023-02-27T12:55:49.854Z,7.34
2023-02-27T12:58:36.678Z,7.62
2023-02-27T13:01:35.845Z,7.46
2023-02-27T13:04:11.408Z,7.62
2023-02-27T13:06:48.612Z,7.83
2023-02-27T13:09:26.720Z,7.93
2023-02-27T13:12:10.173Z,7.88
2023-02-27T13:14:48.794Z,7.63
2023-02-27T13:17:24.446Z,7.89
2023-02-27T13:19:56.392Z,7.71
2023-02-27T13:22:35.359Z,7.32
2023-02-27T13:25:11.622Z,7.06
2023-02-27T13:27:46.392Z,6.97
2023-02-27T13:30:21.852Z,7.02
2023-02-27T13:33:01.054Z,6.97
2023-02-27T13:35:40.860Z,7.12
2023-02-27T13:38:32.061Z,7.38
2023-02-27T13:41:39.943Z,7.54
2023-02-27T13:44:48.663Z,7.73
2023-02-27T13:47:52.177Z,7.53
2023-02-27T13:50:53.511Z,7.36
2023-02-27T13:53:25.455Z,7.49
2023-02-27T13:56:16.058Z,8.89
2023-02-27T13:58:45.049Z,9.51
2023-02-27T14:01:19.116Z,11.82
2023-02-27T14:03:55.040Z,11.80
2023-02-27T14:06:27.428Z,11.68
2023-02-27T14:09:14.345Z,9.78
2023-02-27T14:11:54.935Z,8.16
2023-02-27T14:14:45.509Z,8.26
2023-02-27T14:17:15.466Z,8.52
2023-02-27T14:20:06.607Z,8.88
2023-02-27T14:23:10.233Z,8.65
2023-02-27T14:25:43.123Z,9.26
2023-02-27T14:28:24.989Z,9.68
2023-02-27T14:30:57.441Z,9.28
2023-02-27T14:37:17.493Z,8.58
2023-02-27T14:39:49.131Z,8.67
2023-02-27T14:42:38.092Z,9.37
2023-02-27T14:45:13.829Z,8.76
2023-02-27T14:47:42.327Z,8.66
2023-02-27T14:50:24.540Z,7.99
2023-02-27T14:52:52.776Z,7.87
2023-02-27T14:55:28.003Z,7.97
2023-02-27T14:58:01.055Z,7.93
2023-02-27T15:00:34.985Z,7.83
2023-02-27T15:03:20.504Z,7.86
2023-02-27T15:05:54.951Z,7.32
2023-02-27T15:08:26.390Z,7.63
2023-02-27T15:10:56.758Z,7.69
2023-02-27T15:13:30.058Z,7.46
2023-02-27T15:16:43.897Z,7.32
2023-02-27T15:19:16.321Z,7.39
2023-02-27T15:21:47.087Z,7.39
2023-02-27T15:24:26.001Z,7.52
2023-02-27T15:26:57.399Z,7.63
2023-02-27T15:29:33.938Z,7.61
2023-02-27T15:32:03.031Z,7.44
2023-02-27T15:34:32.245Z,7.21
2023-02-27T15:37:03.884Z,7.10
2023-02-27T15:39:35.570Z,7.13
2023-02-27T15:42:21.452Z,7.18
2023-02-27T15:44:52.953Z,7.05
2023-02-27T15:47:25.857Z,6.91
2023-02-27T15:50:24.119Z,6.86
2023-02-27T15:52:54.429Z,6.68
2023-02-27T15:55:31.768Z,6.63
2023-02-27T15:58:03.407Z,6.48
2023-02-27T16:00:37.235Z,6.44
2023-02-27T16:03:07.836Z,6.41
2023-02-27T16:05:38.057Z,6.40
2023-02-27T16:08:07.366Z,6.36
2023-02-27T16:10:39.328Z,6.31
2023-02-27T16:13:31.752Z,6.32
2023-02-27T16:16:05.854Z,6.24
2023-02-27T16:18:38.255Z,6.12
2023-02-27T16:21:14.185Z,6.01
2023-02-27T16:23:44.088Z,6.08
2023-02-27T16:26:30.532Z,6.02
2023-02-27T16:29:02.700Z,5.96
2023-02-27T16:31:36.740Z,5.90
2023-02-27T16:34:16.594Z,5.92
2023-02-27T16:36:54.167Z,5.85
2023-02-27T16:39:22.338Z,5.72
2023-02-27T16:41:50.666Z,5.77
2023-02-27T16:44:18.544Z,5.73
2023-02-27T16:46:48.165Z,5.66
2023-02-27T16:49:22.417Z,5.54
2023-02-27T16:51:51.151Z,5.40
2023-02-27T16:54:20.443Z,5.34
2023-02-27T16:56:50.236Z,5.21
2023-02-27T16:59:30.980Z,5.12
2023-02-27T17:02:03.485Z,5.05
2023-02-27T17:04:31.855Z,4.91
2023-02-27T17:07:06.636Z,4.78
2023-02-27T17:09:35.220Z,4.64
2023-02-27T17:12:04.681Z,4.58
2023-02-27T17:14:33.023Z,4.42
2023-02-27T17:17:08.008Z,4.04
2023-02-27T17:19:36.040Z,4.11
2023-02-27T17:22:04.227Z,3.97
2023-02-27T17:24:34.945Z,3.95
2023-02-27T17:27:03.229Z,3.88
2023-02-27T17:29:32.219Z,3.73
2023-02-27T17:32:00.951Z,3.74
2023-02-27T17:34:31.815Z,3.50
2023-02-27T17:37:02.866Z,3.32
2023-02-27T17:39:33.447Z,3.31
2023-02-27T17:42:01.412Z,3.19
2023-02-27T17:44:30.198Z,3.32
2023-02-27T17:47:00.894Z,3.33
2023-02-27T17:49:29.004Z,3.19
2023-02-27T17:52:00.637Z,3.10
2023-02-27T17:54:30.946Z,2.92
2023-02-27T17:57:00.197Z,3.04
2023-02-27T17:59:28.373Z,2.86
2023-02-27T18:01:56.533Z,2.70
2023-02-27T18:04:24.517Z,2.68
2023-02-27T18:06:52.765Z,2.58
2023-02-27T18:09:22.423Z,2.51
2023-02-27T18:11:53.170Z,2.29
2023-02-27T18:14:21.245Z,2.40
2023-02-27T18:16:49.466Z,2.42
2023-02-27T18:19:18.317Z,2.33
2023-02-27T18:21:47.157Z,2.21
2023-02-27T18:24:17.261Z,2.12
2023-02-27T18:26:46.739Z,2.01
2023-02-27T18:29:16.265Z,2.01
2023-02-27T18:31:54.588Z,1.80
2023-02-27T18:34:23.187Z,1.73
2023-02-27T18:36:59.238Z,1.66
2023-02-27T18:39:28.109Z,1.30
2023-02-27T18:42:06.659Z,1.29
2023-02-27T18:44:52.945Z,1.37
2023-02-27T18:47:21.878Z,1.24
2023-02-27T18:49:53.645Z,1.03
2023-02-27T18:52:21.867Z,0.65
2023-02-27T18:54:51.028Z,0.66
2023-02-27T18:57:23.192Z,0.77
2023-02-27T18:59:57.403Z,0.76
2023-02-27T19:02:25.464Z,0.68
2023-02-27T19:04:53.583Z,0.83
2023-02-27T19:07:23.363Z,0.85
2023-02-27T19:09:52.311Z,0.74
2023-02-27T19:12:23.586Z,0.61
2023-02-27T19:14:53.020Z,0.60
2023-02-27T19:17:21.382Z,0.68
2023-02-27T19:19:50.793Z,0.82
2023-02-27T19:22:21.268Z,0.85
2023-02-27T19:24:51.258Z,1.02
2023-02-27T19:27:19.349Z,1.11
2023-02-27T19:29:49.112Z,1.18
2023-02-27T19:32:17.870Z,1.15
2023-02-27T19:34:50.189Z,1.24
2023-02-27T19:37:18.248Z,1.25
2023-02-27T19:39:51.832Z,1.25
2023-02-27T19:42:20.675Z,1.32
2023-02-27T19:44:50.219Z,1.43
2023-02-27T19:47:18.193Z,1.38
2023-02-27T19:49:48.063Z,1.29
2023-02-27T19:52:16.514Z,1.37
2023-02-27T19:54:46.200Z,1.35
2023-02-27T19:57:17.769Z,1.12
2023-02-27T19:59:46.869Z,0.99
2023-02-27T20:02:16.163Z,0.86
2023-02-27T20:04:44.648Z,0.66
2023-02-27T20:07:12.781Z,0.58
2023-02-27T20:09:40.896Z,0.78
2023-02-27T20:12:11.118Z,0.72
2023-02-27T20:14:40.273Z,0.90
2023-02-27T20:17:10.758Z,1.04
2023-02-27T20:19:54.144Z,1.14
2023-02-27T20:22:23.100Z,1.23
2023-02-27T20:24:51.394Z,1.22
2023-02-27T20:27:21.693Z,1.35
2023-02-27T20:29:54.596Z,1.45
2023-02-27T20:32:23.433Z,1.48
2023-02-27T20:34:52.312Z,1.66
2023-02-27T20:37:24.202Z,1.54
2023-02-27T20:39:52.366Z,1.55
2023-02-27T20:42:22.535Z,1.44
2023-02-27T20:44:50.883Z,1.47
2023-02-27T20:47:19.245Z,1.57
2023-02-27T20:49:47.512Z,1.58
2023-02-27T20:52:15.558Z,1.65
2023-02-27T20:54:45.187Z,1.69
2023-02-27T20:57:13.498Z,1.65
2023-02-27T20:59:41.613Z,1.56
2023-02-27T21:02:11.054Z,1.54
2023-02-27T21:04:47.454Z,1.65
2023-02-27T21:07:17.871Z,1.64
2023-02-27T21:09:47.778Z,1.81
2023-02-27T21:12:17.471Z,1.70
2023-02-27T21:14:46.591Z,1.84
2023-02-27T21:17:40.192Z,1.79
2023-02-27T21:20:10.160Z,2.00
2023-02-27T21:22:39.915Z,2.04
2023-02-27T21:25:10.438Z,2.00
2023-02-27T21:27:41.165Z,2.05
2023-02-27T21:30:14.232Z,2.11
2023-02-27T21:32:42.518Z,2.11
2023-02-27T21:35:16.452Z,2.03
2023-02-27T21:37:46.793Z,2.14
2023-02-27T21:40:17.495Z,2.31
2023-02-27T21:42:45.919Z,2.28
2023-02-27T21:45:16.822Z,2.27
2023-02-27T21:47:44.836Z,2.30
2023-02-27T21:50:14.861Z,2.34
2023-02-27T21:52:43.467Z,2.39
2023-02-27T21:55:18.059Z,2.42
2023-02-27T21:57:47.712Z,2.34
2023-02-27T22:00:17.723Z,2.32
2023-02-27T22:02:52.070Z,2.36
2023-02-27T22:05:20.705Z,2.47
2023-02-27T22:07:51.580Z,2.40
2023-02-27T22:10:26.465Z,2.32
2023-02-27T22:12:54.444Z,2.43
2023-02-27T22:15:22.900Z,2.39
2023-02-27T22:17:52.360Z,2.58
2023-02-27T22:20:20.710Z,2.55
2023-02-27T22:22:51.262Z,2.55
2023-02-27T22:25:20.830Z,2.51
2023-02-27T22:27:49.621Z,2.44
2023-02-27T22:30:17.864Z,2.61
2023-02-27T22:32:48.088Z,2.65
2023-02-27T22:35:18.914Z,2.66
2023-02-27T22:37:46.992Z,2.75
2023-02-27T22:40:16.416Z,2.75
2023-02-27T22:42:46.537Z,2.70
2023-02-27T22:45:14.955Z,2.81
2023-02-27T22:47:42.812Z,2.92
2023-02-27T22:50:12.047Z,2.78
2023-02-27T22:52:47.011Z,2.94
2023-02-27T22:55:18.462Z,3.04
2023-02-27T22:57:52.748Z,3.07
2023-02-27T23:00:33.535Z,3.02
2023-02-27T23:03:20.009Z,3.09
2023-02-27T23:05:48.893Z,3.05
2023-02-27T23:08:28.118Z,3.04
2023-02-27T23:10:57.398Z,3.08
2023-02-27T23:13:33.616Z,3.10
2023-02-27T23:16:20.288Z,3.12
2023-02-27T23:18:54.491Z,3.02
2023-02-27T23:21:26.715Z,3.10
2023-02-27T23:23:57.477Z,3.09
2023-02-27T23:26:28.628Z,3.12
2023-02-27T23:28:58.694Z,3.13
2023-02-27T23:31:27.549Z,3.17
2023-02-27T23:34:00.307Z,3.12
2023-02-27T23:36:28.520Z,3.34
2023-02-27T23:39:04.189Z,3.26
2023-02-27T23:41:32.510Z,3.15
2023-02-27T23:44:21.601Z,3.18
2023-02-27T23:46:49.729Z,3.12
2023-02-27T23:49:17.962Z,3.15
2023-02-27T23:51:46.127Z,3.18
2023-02-27T23:54:14.223Z,3.12
2023-02-27T23:56:59.899Z,3.20
2023-02-27T23:59:30.897Z,3.00
